Time;durP1;ratioP1;P1;durP2;ratioP2;P2;SDS_P1;SDS_P2;PMS_P1;PMS_P2;Temp;Humidity;BMP_temperature;BMP_pressure;BME280_temperature;BME280_humidity;BME280_pressure;Samples;Min_cycle;Max_cycle;Signal;HPM_P1;HPM_P2
2021/11/28 00:02:20;;;;;;;13.90;5.07;;;4.00;99.90;;;;;;5016367;28;20037;-83
2021/11/28 00:04:50;;;;;;;9.48;5.22;;;4.00;99.90;;;;;;5015948;28;20033;-82
2021/11/28 00:14:50;;;;;;;11.73;5.07;;;4.00;99.90;;;;;;5035091;28;20034;-81
2021/11/28 00:17:15;;;;;;;12.25;5.47;;;4.00;99.90;;;;;;5009262;28;20041;-81
2021/11/28 00:19:42;;;;;;;9.27;5.00;;;4.10;99.90;;;;;;5014954;28;20037;-81
2021/11/28 00:22:08;;;;;;;9.52;4.40;;;4.90;99.90;;;;;;5010842;28;23176;-81
2021/11/28 00:24:34;;;;;;;9.05;4.00;;;4.10;99.90;;;;;;5008314;28;20065;-84
2021/11/28 00:27:00;;;;;;;8.63;3.95;;;4.10;99.90;;;;;;5010087;28;20021;-82
2021/11/28 00:29:26;;;;;;;7.97;4.00;;;4.10;99.90;;;;;;5009522;28;20372;-83
2021/11/28 00:31:55;;;;;;;7.28;3.30;;;5.30;99.90;;;;;;5019054;28;20107;-83
2021/11/28 00:34:21;;;;;;;6.35;3.53;;;;;;;;;;5023813;28;20409;-80
2021/11/28 00:36:47;;;;;;;7.18;3.63;;;4.10;99.90;;;;;;5005818;28;20072;-81
2021/11/28 00:39:12;;;;;;;10.00;3.92;;;4.20;99.90;;;;;;5024272;28;20683;-83
2021/11/28 00:41:38;;;;;;;8.05;3.33;;;4.20;99.90;;;;;;5004700;28;20034;-83
2021/11/28 00:44:04;;;;;;;6.65;3.20;;;5.60;99.90;;;;;;5005350;28;20075;-82
2021/11/28 00:46:31;;;;;;;4.53;3.03;;;4.50;99.90;;;;;;5005419;28;20033;-82
2021/11/28 00:49:00;;;;;;;6.40;3.45;;;5.20;99.90;;;;;;5005995;28;20060;-81
2021/11/28 00:54:00;;;;;;;5.13;2.60;;;4.20;99.90;;;;;;5023298;28;20021;-82
2021/11/28 00:56:26;;;;;;;6.25;3.20;;;4.20;99.90;;;;;;5022767;28;20550;-80
2021/11/28 00:58:52;;;;;;;7.07;2.58;;;4.10;99.90;;;;;;5022662;28;20025;-82
2021/11/28 01:01:19;;;;;;;4.38;2.65;;;4.10;99.90;;;;;;5007763;28;20033;-81
2021/11/28 01:03:45;;;;;;;6.75;2.50;;;;;;;;;;5008857;28;20038;-83
2021/11/28 01:06:11;;;;;;;7.82;2.65;;;;;;;;;;5007101;28;20026;-80
2021/11/28 01:08:37;;;;;;;8.18;3.15;;;4.20;99.90;;;;;;5009261;28;20022;-82
2021/11/28 01:11:03;;;;;;;6.20;3.17;;;4.10;99.90;;;;;;5026076;28;20474;-80
2021/11/28 01:13:29;;;;;;;5.97;2.90;;;6.50;99.90;;;;;;5022646;28;20022;-79
2021/11/28 01:15:54;;;;;;;6.15;2.70;;;4.10;99.90;;;;;;5008187;28;20048;-80
2021/11/28 01:18:20;;;;;;;6.05;2.55;;;4.10;99.90;;;;;;5008883;28;20053;-82
2021/11/28 01:20:46;;;;;;;7.03;3.05;;;4.10;99.90;;;;;;5003538;28;20037;-83
2021/11/28 01:23:12;;;;;;;6.45;2.60;;;4.10;99.90;;;;;;5003394;28;20071;-83
2021/11/28 01:25:37;;;;;;;5.20;2.97;;;4.10;99.90;;;;;;5006472;28;20511;-80
2021/11/28 01:28:03;;;;;;;4.88;2.40;;;4.20;99.90;;;;;;5008849;28;20033;-79
2021/11/28 01:30:30;;;;;;;6.75;3.75;;;4.00;99.90;;;;;;5016777;28;20152;-81
2021/11/28 01:32:56;;;;;;;4.60;2.90;;;4.00;99.90;;;;;;5005856;28;20262;-79
2021/11/28 01:35:22;;;;;;;6.40;2.45;;;4.00;99.90;;;;;;5010072;28;20079;-82
2021/11/28 01:37:48;;;;;;;7.15;2.75;;;6.70;99.90;;;;;;5009069;28;20394;-82
2021/11/28 01:40:18;;;;;;;4.18;2.30;;;4.10;99.90;;;;;;5006628;28;20037;-80
2021/11/28 01:42:47;;;;;;;5.93;2.50;;;4.10;99.90;;;;;;5006007;28;20025;-81
2021/11/28 01:45:16;;;;;;;4.82;2.25;;;4.10;99.90;;;;;;5007312;28;20079;-80
2021/11/28 01:47:43;;;;;;;6.53;2.67;;;;;;;;;;5006397;28;20029;-82
2021/11/28 01:50:09;;;;;;;4.85;2.08;;;;;;;;;;5013419;28;20033;-80
2021/11/28 01:52:36;;;;;;;4.90;2.38;;;4.00;99.90;;;;;;5033469;28;20533;-79
2021/11/28 01:55:08;;;;;;;6.03;2.28;;;3.90;99.90;;;;;;5009383;28;20036;-81
2021/11/28 01:57:34;;;;;;;3.88;2.10;;;;;;;;;;5007696;28;20511;-85
2021/11/28 02:00:00;;;;;;;4.60;2.33;;;3.90;99.90;;;;;;5004819;28;20029;-81
2021/11/28 02:02:27;;;;;;;5.95;2.42;;;;;;;;;;5011875;28;20078;-80
2021/11/28 02:04:53;;;;;;;5.43;2.35;;;4.00;99.90;;;;;;5002646;28;20070;-79
2021/11/28 02:07:19;;;;;;;5.63;2.95;;;;;;;;;;5009459;28;20086;-82
2021/11/28 02:09:45;;;;;;;5.60;2.47;;;4.00;99.90;;;;;;5002932;28;20033;-82
2021/11/28 02:12:11;;;;;;;6.75;3.05;;;4.00;99.90;;;;;;5011795;28;20029;-80
2021/11/28 02:14:37;;;;;;;7.82;2.65;;;4.00;99.90;;;;;;5005726;28;20528;-81
2021/11/28 02:17:04;;;;;;;8.07;2.60;;;3.90;99.90;;;;;;5023693;28;20113;-84
2021/11/28 02:19:30;;;;;;;6.55;2.67;;;;;;;;;;5009795;28;20029;-81
2021/11/28 02:21:56;;;;;;;6.18;2.83;;;;;;;;;;5022958;28;20065;-79
2021/11/28 02:24:22;;;;;;;7.65;3.35;;;;;;;;;;5005696;28;20033;-83
2021/11/28 02:26:48;;;;;;;5.43;2.90;;;;;;;;;;5024504;28;20037;-81
2021/11/28 02:29:14;;;;;;;8.13;3.30;;;;;;;;;;5022940;28;20462;-82
2021/11/28 02:31:40;;;;;;;5.38;3.00;;;;;;;;;;5025591;28;20085;-81
2021/11/28 02:34:06;;;;;;;7.40;3.20;;;4.10;99.90;;;;;;5002945;28;20108;-82
2021/11/28 02:36:32;;;;;;;4.82;2.60;;;4.00;99.90;;;;;;5023713;28;20038;-79
2021/11/28 02:38:57;;;;;;;5.32;2.88;;;4.40;99.90;;;;;;5006298;28;20037;-81
2021/11/28 02:41:23;;;;;;;4.15;2.40;;;4.00;99.90;;;;;;5013289;28;20033;-82
2021/11/28 02:43:49;;;;;;;5.47;2.60;;;3.90;99.90;;;;;;5011721;28;20136;-81
2021/11/28 02:46:14;;;;;;;5.68;3.00;;;4.00;99.90;;;;;;5012184;28;20033;-83
2021/11/28 02:48:41;;;;;;;7.13;4.15;;;3.90;99.90;;;;;;5025121;28;20021;-83
2021/11/28 02:51:07;;;;;;;6.47;3.03;;;3.80;99.90;;;;;;5008876;28;20027;-79
2021/11/28 02:53:33;;;;;;;5.63;2.92;;;3.50;99.90;;;;;;5004274;28;20120;-80
2021/11/28 02:56:03;;;;;;;5.30;2.65;;;4.20;99.90;;;;;;5010614;28;20037;-79
2021/11/28 02:58:31;;;;;;;6.63;3.13;;;4.10;99.90;;;;;;5026362;28;20049;-81
2021/11/28 03:01:04;;;;;;;7.20;2.72;;;5.00;99.90;;;;;;5005758;28;20033;-80
2021/11/28 03:03:30;;;;;;;6.28;2.50;;;3.90;99.90;;;;;;5007667;28;21256;-81
2021/11/28 03:05:56;;;;;;;6.93;3.03;;;3.80;99.90;;;;;;5007136;28;21047;-79
2021/11/28 03:08:21;;;;;;;10.27;2.92;;;3.70;99.90;;;;;;5000052;28;20447;-81
2021/11/28 03:10:50;;;;;;;5.60;3.00;;;3.70;99.90;;;;;;5028614;28;20056;-81
2021/11/28 03:13:32;;;;;;;5.60;2.75;;;3.70;99.90;;;;;;5008589;28;20127;-81
2021/11/28 03:16:04;;;;;;;6.18;3.10;;;3.70;99.90;;;;;;5008230;28;20522;-82
2021/11/28 03:18:31;;;;;;;10.07;3.35;;;3.70;99.90;;;;;;5009450;28;20514;-80
2021/11/28 03:21:00;;;;;;;6.75;2.70;;;3.70;99.90;;;;;;5022029;28;20026;-81
2021/11/28 03:23:30;;;;;;;6.65;3.75;;;3.80;99.90;;;;;;5023037;28;20033;-81
2021/11/28 03:26:15;;;;;;;6.00;2.95;;;3.80;99.90;;;;;;5025228;28;20033;-81
2021/11/28 03:28:51;;;;;;;7.72;3.67;;;3.70;99.90;;;;;;5016942;28;20025;-83
2021/11/28 03:31:17;;;;;;;6.38;3.45;;;4.50;99.90;;;;;;5026446;28;20037;-81
2021/11/28 03:33:44;;;;;;;7.72;3.13;;;2.10;99.90;;;;;;5012834;28;20025;-80
2021/11/28 03:36:12;;;;;;;5.97;3.22;;;3.60;99.90;;;;;;5033112;28;20033;-80
2021/11/28 03:38:39;;;;;;;6.68;3.45;;;4.50;99.90;;;;;;5011973;28;20026;-83
2021/11/28 03:41:06;;;;;;;6.22;3.10;;;3.60;99.90;;;;;;5020954;28;20033;-83
2021/11/28 03:43:32;;;;;;;9.10;3.80;;;4.60;99.90;;;;;;5017155;28;20029;-82
2021/11/28 03:46:00;;;;;;;6.43;3.40;;;5.30;99.90;;;;;;5012041;28;20035;-81
2021/11/28 03:48:25;;;;;;;4.97;3.08;;;3.50;99.90;;;;;;5018538;28;20395;-79
2021/11/28 03:50:51;;;;;;;6.63;3.80;;;5.60;99.90;;;;;;5015464;28;20025;-81
2021/11/28 03:53:17;;;;;;;6.07;3.40;;;5.00;99.90;;;;;;5021314;28;20022;-80
2021/11/28 03:55:43;;;;;;;7.00;3.17;;;3.50;99.90;;;;;;5013048;28;20498;-81
2021/11/28 03:58:08;;;;;;;6.93;3.60;;;4.40;99.90;;;;;;5017366;28;20033;-79
2021/11/28 04:00:37;;;;;;;7.10;3.47;;;3.40;99.90;;;;;;5013008;28;20449;-80
2021/11/28 04:03:04;;;;;;;6.45;3.50;;;4.20;99.90;;;;;;5009798;28;20029;-79
2021/11/28 04:05:31;;;;;;;6.07;3.58;;;3.90;99.90;;;;;;5026658;28;20556;-81
2021/11/28 04:07:57;;;;;;;8.05;3.60;;;3.50;99.90;;;;;;5010799;28;20037;-80
2021/11/28 04:10:23;;;;;;;6.88;3.88;;;3.50;99.90;;;;;;5010019;28;20901;-82
2021/11/28 04:12:49;;;;;;;5.45;3.38;;;3.50;99.90;;;;;;5029856;28;20020;-82
2021/11/28 04:15:15;;;;;;;5.82;3.33;;;3.50;99.90;;;;;;5009914;28;20033;-80
2021/11/28 04:17:41;;;;;;;7.10;3.45;;;3.60;99.90;;;;;;5025749;28;20021;-81
2021/11/28 04:20:08;;;;;;;6.53;3.22;;;3.60;99.90;;;;;;5008003;28;20092;-79
2021/11/28 04:22:34;;;;;;;4.75;3.13;;;3.60;99.90;;;;;;5027884;28;20033;-80
2021/11/28 04:25:00;;;;;;;6.50;3.20;;;4.00;99.90;;;;;;5023356;28;20029;-82
2021/11/28 04:27:26;;;;;;;4.97;3.33;;;3.60;99.90;;;;;;5013076;28;20032;-79
2021/11/28 04:29:52;;;;;;;8.02;3.22;;;5.20;99.90;;;;;;5004709;28;20029;-80
2021/11/28 04:32:18;;;;;;;4.53;2.90;;;4.90;99.90;;;;;;5011469;28;20438;-77
2021/11/28 04:34:44;;;;;;;5.13;3.15;;;5.00;99.90;;;;;;5012385;28;20037;-83
2021/11/28 04:37:10;;;;;;;6.82;3.33;;;3.60;99.90;;;;;;5011715;28;20026;-80
2021/11/28 04:39:37;;;;;;;5.10;2.97;;;5.20;99.90;;;;;;4999500;28;20618;-78
2021/11/28 04:42:03;;;;;;;4.88;2.92;;;5.40;99.90;;;;;;5010971;28;20120;-81
2021/11/28 04:44:30;;;;;;;8.30;3.15;;;3.50;99.90;;;;;;5024660;28;20039;-80
2021/11/28 04:46:55;;;;;;;4.47;2.70;;;5.00;99.90;;;;;;5011205;28;20037;-80
2021/11/28 04:49:22;;;;;;;5.10;3.00;;;3.50;99.90;;;;;;5014165;28;20113;-80
2021/11/28 04:51:47;;;;;;;7.00;3.08;;;5.40;99.90;;;;;;5008327;28;20025;-81
2021/11/28 04:54:13;;;;;;;5.65;3.22;;;5.60;99.90;;;;;;5011944;28;20080;-81
2021/11/28 04:56:39;;;;;;;6.88;3.10;;;2.90;99.90;;;;;;5012229;28;20988;-83
2021/11/28 04:59:05;;;;;;;6.93;3.28;;;5.40;99.90;;;;;;5031331;28;20033;-81
2021/11/28 05:01:31;;;;;;;7.30;3.50;;;4.80;99.90;;;;;;5006004;28;20464;-80
2021/11/28 05:03:57;;;;;;;4.13;2.80;;;4.50;99.90;;;;;;5009265;28;20034;-82
2021/11/28 05:06:22;;;;;;;9.07;2.75;;;5.00;99.90;;;;;;5006722;28;20403;-80
2021/11/28 05:08:48;;;;;;;4.38;2.67;;;4.80;99.90;;;;;;5009716;28;20033;-81
2021/11/28 05:11:14;;;;;;;4.60;2.63;;;4.90;99.90;;;;;;5026069;28;20022;-77
2021/11/28 05:13:40;;;;;;;6.55;2.50;;;4.50;99.90;;;;;;5018815;28;20503;-82
2021/11/28 05:16:05;;;;;;;6.05;2.60;;;5.20;99.90;;;;;;5016044;28;20380;-80
2021/11/28 05:18:31;;;;;;;5.10;3.00;;;5.70;99.90;;;;;;5011402;28;20037;-81
2021/11/28 05:20:57;;;;;;;5.03;2.50;;;4.60;99.90;;;;;;5007466;28;20030;-80
2021/11/28 05:23:23;;;;;;;4.43;2.70;;;5.60;99.90;;;;;;5006387;28;20037;-79
2021/11/28 05:25:49;;;;;;;5.38;2.70;;;;;;;;;;5011938;28;20040;-83
2021/11/28 05:28:15;;;;;;;4.75;2.83;;;3.20;99.90;;;;;;5007036;28;20216;-81
2021/11/28 05:30:40;;;;;;;6.07;2.25;;;3.00;99.90;;;;;;5025528;28;20116;-84
2021/11/28 05:33:07;;;;;;;4.50;2.85;;;3.20;99.90;;;;;;5004216;28;20390;-81
2021/11/28 05:35:33;;;;;;;5.22;2.58;;;3.20;99.90;;;;;;5011033;28;20021;-80
2021/11/28 05:37:59;;;;;;;5.82;2.90;;;3.20;99.90;;;;;;5015699;28;20371;-80
2021/11/28 05:40:25;;;;;;;5.15;2.55;;;3.30;99.90;;;;;;5006103;28;20041;-79
2021/11/28 05:42:52;;;;;;;5.70;2.63;;;3.70;99.90;;;;;;5010984;28;20040;-79
2021/11/28 05:45:20;;;;;;;5.63;2.72;;;5.00;99.90;;;;;;5014715;28;20022;-80
2021/11/28 05:47:47;;;;;;;6.43;3.22;;;3.20;99.90;;;;;;5027942;28;20701;-80
2021/11/28 05:50:13;;;;;;;6.95;2.78;;;3.20;99.90;;;;;;5007310;28;20147;-81
2021/11/28 05:52:40;;;;;;;4.97;2.70;;;3.30;99.90;;;;;;5012126;28;20025;-83
2021/11/28 05:55:07;;;;;;;4.80;2.83;;;3.30;99.90;;;;;;5034974;28;20029;-80
2021/11/28 05:57:34;;;;;;;5.88;3.00;;;3.30;99.90;;;;;;5008395;28;20030;-82
2021/11/28 05:59:59;;;;;;;4.45;2.97;;;3.30;99.90;;;;;;5024756;28;20479;-77
2021/11/28 06:02:25;;;;;;;5.88;2.88;;;3.30;99.90;;;;;;5005276;28;20065;-80
2021/11/28 06:04:51;;;;;;;6.13;3.10;;;;;;;;;;5010132;28;20033;-83
2021/11/28 06:07:17;;;;;;;8.35;3.75;;;;;;;;;;5025540;28;20071;-77
2021/11/28 06:09:43;;;;;;;7.25;3.70;;;;;;;;;;5005554;28;20018;-81
2021/11/28 06:12:09;;;;;;;6.57;3.83;;;3.20;99.90;;;;;;5008064;28;20041;-81
2021/11/28 06:14:35;;;;;;;8.65;3.75;;;3.20;99.90;;;;;;5031003;28;20029;-82
2021/11/28 06:17:01;;;;;;;7.00;4.05;;;3.20;99.90;;;;;;5015334;28;20033;-83
2021/11/28 06:19:27;;;;;;;5.93;3.80;;;3.20;99.90;;;;;;5029121;28;20106;-81
2021/11/28 06:21:53;;;;;;;6.22;3.85;;;3.20;99.90;;;;;;5037729;28;20163;-81
2021/11/28 06:24:20;;;;;;;8.95;4.15;;;5.50;99.90;;;;;;5030223;28;20045;-80
2021/11/28 06:26:47;;;;;;;5.50;3.30;;;3.20;99.90;;;;;;5017584;28;20049;-79
2021/11/28 06:29:12;;;;;;;6.05;3.63;;;3.50;99.90;;;;;;5013398;28;20029;-82
2021/11/28 06:31:39;;;;;;;5.93;3.40;;;5.40;99.90;;;;;;5015002;28;20037;-81
2021/11/28 06:34:05;;;;;;;7.70;3.90;;;5.20;99.90;;;;;;5014314;28;20077;-82
2021/11/28 06:36:31;;;;;;;6.25;3.25;;;5.20;99.90;;;;;;5031483;28;20054;-81
2021/11/28 06:38:57;;;;;;;5.35;3.60;;;3.30;99.90;;;;;;5006901;28;20502;-83
2021/11/28 06:41:26;;;;;;;11.35;3.80;;;3.40;99.90;;;;;;5017925;28;20083;-83
2021/11/28 06:43:55;;;;;;;6.40;3.53;;;4.10;99.90;;;;;;5010582;28;20123;-82
2021/11/28 06:46:21;;;;;;;6.35;3.50;;;3.20;99.90;;;;;;5017234;28;20033;-80
2021/11/28 06:48:47;;;;;;;7.07;3.22;;;3.20;99.90;;;;;;5012845;28;20041;-83
2021/11/28 06:51:13;;;;;;;6.90;3.78;;;3.10;99.90;;;;;;5025267;28;20036;-83
2021/11/28 06:53:39;;;;;;;5.90;3.83;;;4.70;99.90;;;;;;5027176;28;20030;-83
2021/11/28 06:56:05;;;;;;;5.53;3.42;;;3.30;99.90;;;;;;5021892;28;20183;-81
2021/11/28 06:58:32;;;;;;;10.93;3.80;;;3.20;99.90;;;;;;5013681;28;20116;-81
2021/11/28 07:00:57;;;;;;;7.32;3.33;;;3.30;99.90;;;;;;5007486;28;20026;-80
2021/11/28 07:03:23;;;;;;;7.22;3.90;;;3.20;99.90;;;;;;5014934;28;20053;-83
2021/11/28 07:05:49;;;;;;;6.50;3.55;;;3.30;99.90;;;;;;5012040;28;20471;-80
2021/11/28 07:08:15;;;;;;;8.23;3.90;;;3.10;99.90;;;;;;5031904;28;20044;-81
2021/11/28 07:10:40;;;;;;;5.43;3.40;;;3.50;99.90;;;;;;5031443;28;20029;-81
2021/11/28 07:13:07;;;;;;;4.78;3.10;;;4.30;99.90;;;;;;5013300;28;20037;-80
2021/11/28 07:15:33;;;;;;;7.15;3.55;;;4.60;99.90;;;;;;5015727;28;20415;-80
2021/11/28 07:17:59;;;;;;;6.15;3.20;;;3.70;99.90;;;;;;5031215;28;20025;-80
2021/11/28 07:20:25;;;;;;;7.45;3.80;;;3.30;99.90;;;;;;5033095;28;20033;-80
2021/11/28 07:22:51;;;;;;;5.10;3.55;;;3.20;99.90;;;;;;5007363;28;20696;-80
2021/11/28 07:25:17;;;;;;;5.00;3.10;;;3.20;99.90;;;;;;5012599;28;20056;-81
2021/11/28 07:27:43;;;;;;;5.10;3.13;;;4.40;99.90;;;;;;5010398;28;20411;-80
2021/11/28 07:30:09;;;;;;;5.95;2.95;;;3.40;99.90;;;;;;5015471;28;20037;-81
2021/11/28 07:32:35;;;;;;;4.85;2.78;;;3.40;99.90;;;;;;5024242;28;20029;-78
2021/11/28 07:35:01;;;;;;;3.85;2.90;;;3.10;99.90;;;;;;5038997;28;20030;-79
2021/11/28 07:37:27;;;;;;;5.78;3.03;;;4.60;99.90;;;;;;5023238;28;20039;-82
2021/11/28 07:39:53;;;;;;;4.72;2.92;;;4.50;99.90;;;;;;5017068;28;20530;-81
2021/11/28 07:42:19;;;;;;;4.90;2.80;;;3.60;99.90;;;;;;5007883;28;20034;-82
2021/11/28 07:44:45;;;;;;;4.82;2.78;;;3.50;99.90;;;;;;5032311;28;20038;-84
2021/11/28 07:47:10;;;;;;;6.10;2.97;;;4.70;99.90;;;;;;5014751;28;20057;-83
2021/11/28 07:49:36;;;;;;;4.70;3.20;;;5.40;99.90;;;;;;5014389;28;20487;-82
2021/11/28 07:52:02;;;;;;;5.15;2.80;;;3.50;99.90;;;;;;5016281;28;20475;-81
2021/11/28 07:54:28;;;;;;;4.82;2.80;;;3.40;99.90;;;;;;5017637;28;20033;-81
2021/11/28 07:56:54;;;;;;;4.63;3.10;;;3.50;99.90;;;;;;5019575;28;20017;-81
2021/11/28 07:59:20;;;;;;;5.05;3.05;;;3.50;99.90;;;;;;5024943;28;20417;-82
2021/11/28 08:01:45;;;;;;;4.80;3.20;;;4.30;99.90;;;;;;5038204;28;20025;-85
2021/11/28 08:04:11;;;;;;;6.00;3.20;;;3.50;99.90;;;;;;5018486;28;20042;-84
2021/11/28 08:06:37;;;;;;;6.63;3.55;;;3.40;99.90;;;;;;5016255;28;20483;-83
2021/11/28 08:09:03;;;;;;;5.93;3.30;;;4.70;99.90;;;;;;5035373;28;20150;-82
2021/11/28 08:11:28;;;;;;;5.80;3.53;;;3.20;99.90;;;;;;5013179;28;20057;-81
2021/11/28 08:13:54;;;;;;;5.78;3.72;;;3.40;99.90;;;;;;5038860;28;20059;-83
2021/11/28 08:16:20;;;;;;;5.28;3.25;;;4.40;99.90;;;;;;5019508;28;20391;-83
2021/11/28 08:18:45;;;;;;;6.57;3.72;;;3.40;99.90;;;;;;5021708;28;20026;-83
2021/11/28 08:21:11;;;;;;;6.70;3.88;;;3.80;99.90;;;;;;5026413;28;20021;-81
2021/11/28 08:23:37;;;;;;;7.15;4.47;;;5.20;99.90;;;;;;5022533;28;20022;-81
2021/11/28 08:26:03;;;;;;;7.22;3.90;;;3.40;99.90;;;;;;5023218;28;20112;-82
2021/11/28 08:28:29;;;;;;;6.50;3.70;;;4.20;99.90;;;;;;5020223;28;20109;-81
2021/11/28 08:30:55;;;;;;;6.88;3.92;;;4.30;99.90;;;;;;5024137;28;20075;-82
2021/11/28 08:33:22;;;;;;;7.93;4.28;;;5.60;99.90;;;;;;5023287;28;20426;-81
2021/11/28 08:35:48;;;;;;;9.55;4.40;;;3.40;99.90;;;;;;5029362;28;20082;-81
2021/11/28 08:38:14;;;;;;;5.57;3.70;;;3.40;99.90;;;;;;5028491;28;20022;-81
2021/11/28 08:40:40;;;;;;;7.60;4.53;;;;;;;;;;5021426;28;20436;-81
2021/11/28 08:43:08;;;;;;;6.75;4.35;;;3.40;99.90;;;;;;5035376;28;20033;-81
2021/11/28 08:45:34;;;;;;;7.47;4.60;;;5.90;99.90;;;;;;5026479;28;20034;-82
2021/11/28 08:48:03;;;;;;;6.32;4.30;;;6.40;99.90;;;;;;5009018;28;20033;-81
2021/11/28 08:50:29;;;;;;;6.93;4.25;;;;;;;;;;5010680;28;20036;-82
2021/11/28 08:52:56;;;;;;;5.85;4.30;;;;;;;;;;5017823;28;20030;-82
2021/11/28 08:55:21;;;;;;;6.47;4.28;;;3.50;99.90;;;;;;5011991;28;20199;-83
2021/11/28 08:57:47;;;;;;;7.40;4.10;;;;;;;;;;5014921;28;20041;-82
2021/11/28 09:00:15;;;;;;;5.65;4.18;;;3.60;99.90;;;;;;5010361;28;20026;-81
2021/11/28 09:02:47;;;;;;;5.95;3.97;;;3.60;99.90;;;;;;5017225;28;20022;-81
2021/11/28 09:05:24;;;;;;;5.53;3.58;;;;;;;;;;5014694;28;20034;-83
2021/11/28 09:08:03;;;;;;;6.00;4.22;;;3.60;99.90;;;;;;5037768;28;20021;-83
2021/11/28 09:10:29;;;;;;;6.32;3.70;;;3.60;99.90;;;;;;5020494;28;20030;-80
2021/11/28 09:12:56;;;;;;;6.40;4.40;;;4.40;99.90;;;;;;5031480;28;20030;-80
2021/11/28 09:15:22;;;;;;;6.15;3.92;;;;;;;;;;5010855;28;20027;-81
2021/11/28 09:17:52;;;;;;;6.95;3.88;;;3.60;99.90;;;;;;5015644;28;20037;-81
2021/11/28 09:20:25;;;;;;;5.93;3.97;;;;;;;;;;5015516;28;20379;-81
2021/11/28 09:25:37;;;;;;;6.05;4.15;;;;;;;;;;5028823;28;20038;-83
2021/11/28 09:28:06;;;;;;;6.07;3.83;;;;;;;;;;5006080;28;20026;-83
2021/11/28 09:30:41;;;;;;;6.22;4.18;;;;;;;;;;5008920;28;20033;-81
2021/11/28 09:33:07;;;;;;;9.70;4.32;;;;;;;;;;5010850;28;20022;-82
2021/11/28 09:35:34;;;;;;;7.45;4.60;;;;;;;;;;5033332;28;20448;-81
2021/11/28 09:38:01;;;;;;;6.47;4.35;;;;;;;;;;5020162;28;20033;-83
2021/11/28 09:40:27;;;;;;;7.95;4.97;;;;;;;;;;5014788;28;20037;-84
2021/11/28 09:42:58;;;;;;;8.90;5.38;;;3.80;99.90;;;;;;5017540;28;20037;-82
2021/11/28 09:45:30;;;;;;;8.05;4.68;;;;;;;;;;5025344;28;20396;-83
2021/11/28 09:48:06;;;;;;;7.88;4.88;;;3.70;99.90;;;;;;5036463;28;20075;-82
2021/11/28 09:50:32;;;;;;;9.88;5.20;;;3.70;99.90;;;;;;5009605;28;20486;-82
2021/11/28 09:52:58;;;;;;;8.27;5.30;;;3.70;99.90;;;;;;5008626;28;20090;-82
2021/11/28 09:55:26;;;;;;;7.63;4.70;;;3.90;99.90;;;;;;5010954;28;20029;-81
2021/11/28 09:57:53;;;;;;;7.05;4.20;;;;;;;;;;5032640;28;20063;-84
2021/11/28 10:00:21;;;;;;;6.53;4.45;;;;;;;;;;5014514;28;20033;-82
2021/11/28 10:06:10;;;;;;;7.60;5.40;;;3.70;99.90;;;;;;5025524;28;20041;-81
2021/11/28 10:09:08;;;;;;;9.70;5.20;;;3.80;99.90;;;;;;5011531;28;20033;-84
2021/11/28 10:39:51;;;;;;;11.50;7.18;;;4.10;99.90;;;;;;5019731;23;20325;-78
2021/11/28 10:42:30;;;;;;;11.63;6.57;;;3.90;99.90;;;;;;5009607;28;20056;-78
2021/11/28 10:45:07;;;;;;;11.00;6.55;;;4.00;99.90;;;;;;5018329;28;20030;-81
2021/11/28 10:47:45;;;;;;;9.60;6.70;;;4.00;99.90;;;;;;5016870;28;20733;-78
2021/11/28 10:50:33;;;;;;;10.90;7.07;;;4.10;99.90;;;;;;4996224;28;20040;-81
2021/11/28 10:53:21;;;;;;;11.48;6.93;;;4.00;99.90;;;;;;5006229;28;20022;-81
2021/11/28 10:55:49;;;;;;;10.55;6.65;;;4.00;99.90;;;;;;5011808;28;20029;-81
2021/11/28 10:58:19;;;;;;;11.25;6.95;;;4.00;99.90;;;;;;5004429;28;20021;-81
2021/11/28 11:00:45;;;;;;;12.95;7.55;;;3.90;99.90;;;;;;5015295;28;20108;-78
2021/11/28 11:03:30;;;;;;;11.20;7.32;;;3.90;99.90;;;;;;5011649;28;20040;-80
2021/11/28 11:06:24;;;;;;;10.68;6.85;;;3.90;99.90;;;;;;5006469;28;20030;-80
2021/11/28 11:09:12;;;;;;;11.63;6.93;;;3.80;99.90;;;;;;5003352;28;20079;-81
2021/11/28 11:11:39;;;;;;;12.02;6.88;;;3.90;99.90;;;;;;5011759;28;20021;-82
2021/11/28 11:14:07;;;;;;;13.32;7.05;;;3.90;99.90;;;;;;5008218;28;20034;-80
2021/11/28 11:16:45;;;;;;;12.88;7.75;;;4.10;99.90;;;;;;5003087;28;20037;-81
2021/11/28 11:19:52;;;;;;;11.00;6.90;;;4.00;99.90;;;;;;5006865;28;20033;-81
2021/11/28 11:22:25;;;;;;;11.52;7.60;;;4.00;99.90;;;;;;5012293;28;20045;-79
2021/11/28 11:25:03;;;;;;;12.20;7.28;;;3.90;99.90;;;;;;5010542;28;20029;-79
2021/11/28 11:27:39;;;;;;;10.25;6.40;;;3.90;99.90;;;;;;5002931;28;20021;-79
2021/11/28 11:30:06;;;;;;;11.45;6.80;;;4.00;99.90;;;;;;5010991;28;20045;-80
2021/11/28 11:32:41;;;;;;;11.95;6.57;;;4.10;99.90;;;;;;5017707;28;20028;-79
2021/11/28 11:35:09;;;;;;;12.40;6.88;;;4.10;99.90;;;;;;5010378;28;20297;-80
2021/11/28 11:37:37;;;;;;;10.52;6.90;;;3.80;99.90;;;;;;5011669;28;20064;-78
2021/11/28 11:40:09;;;;;;;9.88;6.47;;;4.10;99.90;;;;;;5011344;28;20030;-78
2021/11/28 11:42:38;;;;;;;11.65;7.28;;;4.10;99.90;;;;;;5005673;28;22884;-81
2021/11/28 11:45:10;;;;;;;11.27;7.20;;;4.10;99.90;;;;;;5023641;28;20037;-78
2021/11/28 11:47:39;;;;;;;13.38;7.20;;;4.10;99.90;;;;;;5009387;28;20026;-80
2021/11/28 11:50:09;;;;;;;14.43;7.18;;;4.10;99.90;;;;;;5007830;28;20026;-79
2021/11/28 11:52:36;;;;;;;;;;;4.10;99.90;;;;;;5008742;28;20086;-82
2021/11/28 11:55:25;;;;;;;9.77;5.88;;;4.10;99.90;;;;;;5000899;28;19943;-80
2021/11/28 11:58:31;;;;;;;11.63;6.80;;;4.00;99.90;;;;;;5018675;28;20068;-81
2021/11/28 12:01:17;;;;;;;12.85;6.88;;;4.00;99.90;;;;;;5002553;28;20686;-78
2021/11/28 12:03:54;;;;;;;13.32;7.50;;;4.00;99.90;;;;;;5016473;28;20052;-80
2021/11/28 12:06:53;;;;;;;11.82;7.20;;;4.00;99.90;;;;;;5008084;28;20021;-77
2021/11/28 12:09:24;;;;;;;11.55;6.28;;;3.90;99.90;;;;;;4985455;28;20034;-80
2021/11/28 12:11:58;;;;;;;10.82;6.47;;;3.90;99.90;;;;;;5013071;28;20417;-81
2021/11/28 12:14:24;;;;;;;11.15;6.50;;;3.90;99.90;;;;;;5025960;28;20021;-82
2021/11/28 12:16:52;;;;;;;12.93;7.38;;;4.00;99.90;;;;;;5020064;28;20036;-79
2021/11/28 12:19:39;;;;;;;11.98;6.55;;;4.00;99.90;;;;;;5008680;28;20037;-78
2021/11/28 12:22:06;;;;;;;10.07;5.90;;;4.00;99.90;;;;;;5002980;28;20301;-80
2021/11/28 12:24:34;;;;;;;12.00;7.00;;;4.00;99.90;;;;;;5026058;28;20041;-80
2021/11/28 12:27:05;;;;;;;13.57;6.80;;;4.00;99.90;;;;;;4996373;28;20103;-81
2021/11/28 12:29:35;;;;;;;11.80;7.20;;;4.00;99.90;;;;;;4988606;28;21555;-80
2021/11/28 12:32:11;;;;;;;13.38;8.00;;;4.00;99.90;;;;;;5001493;28;20040;-83
2021/11/28 12:35:02;;;;;;;11.70;6.78;;;4.50;99.90;;;;;;5005713;28;20034;-83
2021/11/28 12:37:39;;;;;;;13.00;7.18;;;4.00;99.90;;;;;;4987045;28;20629;-82
2021/11/28 12:40:28;;;;;;;9.60;6.07;;;4.00;99.90;;;;;;5004922;28;20034;-82
2021/11/28 12:42:57;;;;;;;15.20;7.27;;;4.10;99.90;;;;;;5019155;28;20060;-81
2021/11/28 12:45:34;;;;;;;13.65;7.75;;;4.10;99.90;;;;;;4998176;28;20139;-81
2021/11/28 12:48:11;;;;;;;9.23;5.43;;;4.00;99.90;;;;;;5020485;28;20040;-81
2021/11/28 12:50:56;;;;;;;9.65;5.78;;;4.10;99.90;;;;;;5008925;28;20025;-80
2021/11/28 12:53:42;;;;;;;9.55;6.00;;;4.10;99.90;;;;;;4999785;28;20148;-79
2021/11/28 12:56:12;;;;;;;9.75;5.70;;;4.40;99.90;;;;;;4991886;28;20034;-79
2021/11/28 12:59:10;;;;;;;10.35;6.15;;;4.20;99.90;;;;;;5010961;28;20489;-81
2021/11/28 13:01:58;;;;;;;12.15;6.82;;;4.20;99.90;;;;;;4997119;28;20029;-80
2021/11/28 13:04:40;;;;;;;10.77;5.70;;;4.30;99.90;;;;;;5022870;28;20904;-82
2021/11/28 13:07:36;;;;;;;11.38;7.13;;;4.30;99.90;;;;;;5008662;28;20132;-83
2021/11/28 13:10:26;;;;;;;13.38;6.63;;;4.30;99.90;;;;;;4992104;28;20034;-82
2021/11/28 13:12:56;;;;;;;10.60;6.43;;;4.30;99.90;;;;;;4999865;28;20238;-82
2021/11/28 13:15:27;;;;;;;10.60;6.72;;;4.40;99.90;;;;;;5001203;28;20399;-83
2021/11/28 13:17:55;;;;;;;13.68;6.30;;;4.40;99.90;;;;;;5003579;28;20506;-78
2021/11/28 13:20:22;;;;;;;10.95;6.97;;;4.30;99.90;;;;;;4998917;28;20041;-80
2021/11/28 13:22:50;;;;;;;10.25;6.40;;;4.40;99.90;;;;;;5009219;28;20035;-81
2021/11/28 13:25:50;;;;;;;13.88;8.20;;;4.40;99.90;;;;;;5021272;28;20276;-81
2021/11/28 13:28:22;;;;;;;10.60;6.22;;;4.40;99.90;;;;;;5014350;28;20017;-83
2021/11/28 13:30:56;;;;;;;11.02;6.10;;;4.40;99.90;;;;;;5022511;28;20037;-81
2021/11/28 13:33:26;;;;;;;10.95;6.95;;;4.30;99.90;;;;;;5026531;28;20033;-82
2021/11/28 13:36:06;;;;;;;13.18;7.68;;;4.40;99.90;;;;;;5012535;28;20041;-80
2021/11/28 13:38:49;;;;;;;11.82;7.22;;;4.40;99.90;;;;;;5015681;28;20936;-81
2021/11/28 13:41:18;;;;;;;9.63;6.07;;;4.40;99.90;;;;;;5015636;28;20070;-79
2021/11/28 13:43:55;;;;;;;11.15;6.88;;;4.40;99.90;;;;;;5023179;28;20032;-80
2021/11/28 13:46:44;;;;;;;10.82;6.50;;;4.40;99.90;;;;;;5026479;28;20099;-81
2021/11/28 13:49:34;;;;;;;10.15;6.50;;;4.50;99.90;;;;;;5002421;28;20502;-84
2021/11/28 13:52:10;;;;;;;;;;;4.50;99.90;;;;;;4998202;28;20026;-83
2021/11/28 13:54:45;;;;;;;11.57;6.93;;;4.50;99.90;;;;;;5011942;28;19909;-79
2021/11/28 13:57:21;;;;;;;11.57;7.40;;;2.90;99.90;;;;;;5001820;28;20037;-81
2021/11/28 14:00:05;;;;;;;12.90;7.47;;;4.50;99.90;;;;;;5006084;28;20033;-81
2021/11/28 14:02:34;;;;;;;11.65;7.07;;;4.50;99.90;;;;;;5031819;28;20035;-83